Marengo, IA (52301)

10:35 AM CST on December 05, 2016 (GMT -0600)
South West Btown | | Change Station
Active Advisory: Dense Fog Advisory Active Notice: Local Storm Report

Elev 866 ft 41.91 °N, 92.09 °W | Updated 52 seconds ago

Light Freezing Fog
Freezing Fog
31.6 °F
Feels Like 23 °F
N
10.5
Wind Variable Wind from SE
Gusts 13.0 mph

Today
High -- | Low -- °F
--% Chance of Precip.
Yesterday
High -- | Low -- °F
Precip. -- in
Pressure 29.91 in
Visibility 0.5 miles
Clouds
Windchill 23 °F
Dew Point 31 °F
Humidity 97%
Rainfall 0.05 in
Snow Depth Not available.
7:20 AM 4:37 PM
Waxing Crescent, 33% visible
SPECI KCID 051630Z 16011KT 1/2SM FZFG VV002 M01/M01 A2991 RMK AO2 T10061006 $
Pressure 29.91 in
Visibility 0.5 miles
Clouds
Windchill 23 °F
Dew Point 31 °F
Humidity 97%
Rainfall 0.05 in
Snow Depth Not available.
7:20 AM 4:37 PM
Waxing Crescent, 33% visible
SPECI KCID 051630Z 16011KT 1/2SM FZFG VV002 M01/M01 A2991 RMK AO2 T10061006 $

10-Day Weather Forecast

Almanac

Astronomy

Dec. 05, 2016 Rise Set
Actual Time
Civil Twilight
Nautical Twilight
Astronomical Twilight
Moon
Length of Visible Light
Length of Day
Tomorrow will be .
, % of the Moon is Illuminated

Today's Extremes

State Highs State Lows

Community

WunderPhotos

Upload Photos

1,955,819 photos uploaded!

WunderBlog® & News

Nearby

Air Quality

  Air Quality AQ Index Pollutant
Not available.

Snow Depth

Station Depth Elevation

Earthquake Activity

City Distance Mag. Time & Date
Minimum magnitude displayed is 2.5.

Coastal Water Temperatures

Place Temperature

Stations

Nearby Weather Stations

Station Location Temp. Windchill Dew Point Humidity Wind Precip. Elev Updated Type
                   

Watches & Warnings

Dense Fog Advisory
Issued: 9:00 AM CST Dec. 5, 2016 – National Weather Service

... Dense fog advisory remains in effect until noon CST today...

* timing... through noon today.

* Impacts... visibilities less than 1/4 mile and some near zero
will make driving difficult.

Precautionary/preparedness actions...

A dense fog advisory means visibilities will frequently be
reduced to less than one quarter mile. If driving... slow down...
use your headlights... and leave plenty of distance ahead of you.



Haase